GRZ535 Details

Departure: Wiley Post-Will Rogers Memorial Airport (PABR)
Arrival: Deadhorse Airport (PASC) at N/A
Route: BRW J507 SCC
Notes:


Current Weather Information
PABR 230653Z AUTO 19012KT 10SM OVC070 M07/M09 A2997 RMK AO2 SLP151 T10721094 TSNO $
PASC 230653Z 22006KT 10SM BKN001 M14/M16 A3003 RMK AO2 SLPNO T11391156